CIU weather

Chippewa County International Airport
Sault Ste Marie, Michigan, United States

Public forecast

Using degrees Fahrenheit for public forecast. Weather courtesy of forecast.io.

Current aviation weather report (METAR) for Chippewa County International Airport

Retrieved 2020/01/17 20:56 UTC (42 minutes ago):

KCIU 172056Z AUTO 11009KT 9SM -SN OVC019 M09/M12 A3066 RMK AO2 SLP400 P0000 60000 T10941117 56023 FZRANO

Closest aviation forecast (TAF) to Chippewa County International Airport

Closest forecast is Sault Ste Marie Airport, 14.1 nm (26.2 km) N. Retrieved 2020/01/17 20:42 UTC (56 minutes ago):

TAF TAF CYAM 171938Z 1720/1808 09008KT P6SM FEW020 BKN030 BKN160 TEMPO 1720/1806 BKN020 OVC160 FM180600 11012G22KT P6SM -SN OVC020 TEMPO 1806/1808 11/2SM -SN OVC008 RMK NXT FCST BY 180200Z